Time;durP1;ratioP1;P1;durP2;ratioP2;P2;SDS_P1;SDS_P2;PMS_P1;PMS_P2;Temp;Humidity;BMP_temperature;BMP_pressure;BME280_temperature;BME280_humidity;BME280_pressure;Samples;Min_cycle;Max_cycle;Signal;HPM_P1;HPM_P2
2023/04/28 00:00:08;;;;;;;9.18;4.68;;;;;;;8.88;81.98;101261.41;5029768;28;20060;-53
2023/04/28 00:02:36;;;;;;;10.93;4.60;;;;;;;8.83;82.94;101249.47;5030311;28;20049;-53
2023/04/28 00:05:07;;;;;;;10.05;5.63;;;;;;;8.92;84.37;101249.00;5033356;28;20045;-53
2023/04/28 00:07:35;;;;;;;10.00;4.70;;;;;;;8.89;82.66;101247.38;5033010;28;20042;-52
2023/04/28 00:10:06;;;;;;;11.73;5.00;;;;;;;8.82;83.71;101232.91;5029520;28;20111;-53
2023/04/28 00:12:34;;;;;;;8.70;4.85;;;;;;;8.81;83.42;101239.06;5029941;28;20496;-53
2023/04/28 00:15:03;;;;;;;9.65;4.88;;;;;;;8.88;82.53;101235.19;5028500;28;20608;-54
2023/04/28 00:17:31;;;;;;;9.35;4.68;;;;;;;8.79;83.74;101227.78;5028311;28;20042;-52
2023/04/28 00:20:02;;;;;;;8.63;4.65;;;;;;;8.74;84.91;101233.28;5028940;28;20053;-54
2023/04/28 00:22:31;;;;;;;8.48;4.70;;;;;;;8.72;83.87;101237.75;5029305;28;20041;-55
2023/04/28 00:24:59;;;;;;;10.20;5.15;;;;;;;8.66;84.02;101237.19;5029317;28;20128;-53
2023/04/28 00:27:27;;;;;;;9.02;4.60;;;;;;;8.66;83.70;101231.97;5032385;28;20069;-61
2023/04/28 00:29:56;;;;;;;9.13;4.65;;;;;;;8.65;83.58;101211.94;5031917;28;20053;-61
2023/04/28 00:32:24;;;;;;;8.85;4.57;;;;;;;8.64;83.62;101213.69;5031834;28;20137;-60
2023/04/28 00:34:52;;;;;;;8.60;4.57;;;;;;;8.60;84.11;101225.25;5031566;28;20103;-61
2023/04/28 00:37:20;;;;;;;8.57;4.40;;;;;;;8.64;84.44;101216.31;5031728;28;20433;-61
2023/04/28 00:39:55;;;;;;;11.00;4.82;;;;;;;8.55;85.18;101209.78;5032162;28;20041;-60
2023/04/28 00:42:24;;;;;;;8.95;4.43;;;;;;;8.60;85.03;101214.78;5032299;28;20057;-60
2023/04/28 00:44:52;;;;;;;8.10;4.07;;;;;;;8.50;84.61;101206.53;5033114;28;20049;-61
2023/04/28 00:47:20;;;;;;;7.50;4.15;;;;;;;8.52;85.85;101203.81;5031894;28;20055;-60
2023/04/28 00:49:51;;;;;;;8.75;4.28;;;;;;;8.52;85.10;101202.06;5031960;28;20069;-61
2023/04/28 00:52:19;;;;;;;9.05;4.63;;;;;;;8.47;85.22;101198.84;5031575;28;20099;-61
2023/04/28 00:54:49;;;;;;;8.57;4.20;;;;;;;8.51;85.20;101192.50;5031491;28;20053;-60
2023/04/28 00:57:17;;;;;;;7.50;3.92;;;;;;;8.53;85.72;101179.31;5030378;28;20115;-61
2023/04/28 00:59:45;;;;;;;11.35;4.47;;;;;;;8.54;85.32;101173.16;5032545;28;20400;-60
2023/04/28 01:02:16;;;;;;;9.50;4.53;;;;;;;8.52;84.99;101165.38;5031772;28;20061;-61
2023/04/28 01:04:45;;;;;;;8.00;4.20;;;;;;;8.44;86.62;101164.88;5031395;28;20049;-60
2023/04/28 01:07:13;;;;;;;9.63;4.40;;;;;;;8.41;86.09;101152.78;5031538;28;20056;-60
2023/04/28 01:09:42;;;;;;;8.40;5.00;;;;;;;8.36;86.78;101156.56;5031830;28;20396;-61
2023/04/28 01:12:12;;;;;;;8.27;4.20;;;;;;;8.39;87.71;101152.00;5031839;28;20480;-60
2023/04/28 01:14:40;;;;;;;10.05;4.45;;;;;;;8.32;87.39;101149.75;5030050;28;20049;-60
2023/04/28 01:17:11;;;;;;;9.77;5.15;;;;;;;8.25;89.92;101147.47;5032674;28;20049;-60
2023/04/28 01:19:39;;;;;;;7.35;4.13;;;;;;;8.23;92.01;101157.16;5032409;28;20492;-59
2023/04/28 01:22:09;;;;;;;8.50;4.43;;;;;;;8.27;93.36;101156.06;5030457;28;20124;-60
2023/04/28 01:24:39;;;;;;;8.43;4.15;;;;;;;8.29;94.71;101159.47;5030870;28;20049;-60
2023/04/28 01:27:07;;;;;;;9.90;4.93;;;;;;;8.28;96.88;101159.56;5030482;28;20444;-60
2023/04/28 01:29:35;;;;;;;10.88;4.72;;;;;;;8.30;100.00;101162.94;5030579;28;20034;-59
2023/04/28 01:32:03;;;;;;;10.52;5.28;;;;;;;8.29;100.00;101161.28;5030599;28;20073;-59
2023/04/28 01:34:31;;;;;;;8.48;4.88;;;;;;;8.21;100.00;101161.66;5029516;28;20049;-58
2023/04/28 01:37:00;;;;;;;8.63;4.82;;;;;;;8.16;100.00;101163.63;5029886;28;20045;-58
2023/04/28 01:39:28;;;;;;;9.02;5.03;;;;;;;8.12;100.00;101156.84;5030322;28;20505;-57
2023/04/28 01:41:57;;;;;;;9.02;4.35;;;;;;;8.12;100.00;101160.31;5034267;28;20107;-57
2023/04/28 01:44:25;;;;;;;9.45;4.80;;;;;;;8.08;100.00;101156.16;5036068;28;20152;-57
2023/04/28 01:46:53;;;;;;;12.20;4.95;;;;;;;7.98;100.00;101148.84;5035255;28;20496;-57
2023/04/28 01:49:22;;;;;;;8.60;4.72;;;;;;;7.98;100.00;101138.38;5031909;28;20050;-57
2023/04/28 01:51:51;;;;;;;10.98;5.53;;;;;;;7.97;100.00;101141.91;5031375;28;20057;-57
2023/04/28 01:54:19;;;;;;;9.00;4.97;;;;;;;7.92;100.00;101145.59;5033094;28;20080;-59
2023/04/28 01:56:47;;;;;;;12.23;5.20;;;;;;;7.87;100.00;101144.97;5033459;28;20049;-58
2023/04/28 01:59:17;;;;;;;9.77;5.28;;;;;;;7.87;100.00;101144.16;5033645;28;20455;-58
2023/04/28 02:01:45;;;;;;;10.57;4.95;;;;;;;7.83;100.00;101142.59;5033435;28;20057;-58
2023/04/28 02:04:13;;;;;;;8.30;4.40;;;;;;;7.87;100.00;101141.53;5034942;28;20046;-58
2023/04/28 02:06:42;;;;;;;10.80;4.95;;;;;;;7.83;100.00;101132.13;5034167;28;20053;-59
2023/04/28 02:09:13;;;;;;;8.07;4.40;;;;;;;7.90;100.00;101131.72;5034130;28;20463;-59
2023/04/28 02:11:41;;;;;;;10.70;5.13;;;;;;;7.83;100.00;101124.28;5034401;28;20126;-59
2023/04/28 02:14:09;;;;;;;9.50;4.80;;;;;;;7.74;100.00;101117.69;5034484;28;20073;-58
2023/04/28 02:16:39;;;;;;;8.25;4.25;;;;;;;7.76;100.00;101115.88;5034493;28;20052;-59
2023/04/28 02:19:07;;;;;;;11.65;5.28;;;;;;;7.81;100.00;101123.47;5034022;28;20057;-59
2023/04/28 02:21:35;;;;;;;9.90;5.20;;;;;;;7.77;100.00;101122.78;5033881;28;20576;-59
2023/04/28 02:24:03;;;;;;;8.85;4.75;;;;;;;7.75;100.00;101114.16;5034010;28;20098;-59
2023/04/28 02:26:35;;;;;;;9.18;4.88;;;;;;;7.80;100.00;101117.41;5034477;28;20382;-59
2023/04/28 02:29:03;;;;;;;9.60;5.00;;;;;;;7.82;100.00;101112.09;5035449;28;20050;-59
2023/04/28 02:31:31;;;;;;;10.73;5.13;;;;;;;7.74;100.00;101109.84;5034234;28;20045;-59
2023/04/28 02:34:03;;;;;;;8.52;4.70;;;;;;;7.71;100.00;101108.22;5033329;28;20045;-59
2023/04/28 02:36:32;;;;;;;8.52;4.60;;;;;;;7.69;100.00;101103.97;5034561;28;20103;-59
2023/04/28 02:39:00;;;;;;;10.05;5.20;;;;;;;7.68;100.00;101099.69;5033247;28;20049;-58
2023/04/28 02:41:29;;;;;;;9.90;4.35;;;;;;;7.66;100.00;101089.25;5033573;28;20107;-59
2023/04/28 02:43:58;;;;;;;8.95;4.47;;;;;;;7.63;100.00;101099.06;5033686;28;20049;-58
2023/04/28 02:46:28;;;;;;;9.48;4.40;;;;;;;7.66;100.00;101096.28;5033487;28;20427;-58
2023/04/28 02:48:56;;;;;;;8.82;4.72;;;;;;;7.70;100.00;101092.59;5033241;28;20120;-59
2023/04/28 02:51:25;;;;;;;9.15;4.85;;;;;;;7.64;100.00;101087.66;5030814;28;20069;-58
2023/04/28 02:53:53;;;;;;;9.68;4.82;;;;;;;7.67;100.00;101084.88;5033655;28;20053;-58
2023/04/28 02:56:21;;;;;;;10.82;4.35;;;;;;;7.63;100.00;101073.72;5033372;28;20068;-58
2023/04/28 02:58:49;;;;;;;9.15;5.15;;;;;;;7.61;100.00;101073.78;5032002;28;20081;-58
2023/04/28 03:01:18;;;;;;;9.60;5.38;;;;;;;7.61;100.00;101071.16;5033128;28;20144;-58
2023/04/28 03:03:46;;;;;;;9.85;5.10;;;;;;;7.62;100.00;101058.91;5034905;28;20053;-58
2023/04/28 03:06:14;;;;;;;10.05;4.53;;;;;;;7.68;100.00;101056.00;5034714;28;20052;-58
2023/04/28 03:08:43;;;;;;;9.70;5.03;;;;;;;7.63;100.00;101038.84;5034005;28;20037;-58
2023/04/28 03:11:12;;;;;;;10.23;4.72;;;;;;;7.65;100.00;101042.22;5033242;28;20091;-58
2023/04/28 03:13:40;;;;;;;9.98;4.90;;;;;;;7.64;100.00;101043.16;5033318;28;20041;-58
2023/04/28 03:16:08;;;;;;;9.90;4.80;;;;;;;7.59;100.00;101043.38;5033231;28;20062;-58
2023/04/28 03:18:36;;;;;;;9.70;4.75;;;;;;;7.59;100.00;101039.00;5033219;28;20128;-59
2023/04/28 03:21:04;;;;;;;8.80;4.57;;;;;;;7.59;100.00;101033.78;5032240;28;20041;-59
2023/04/28 03:23:32;;;;;;;9.63;5.15;;;;;;;7.55;100.00;101029.63;5033999;28;20049;-59
2023/04/28 03:26:02;;;;;;;8.52;5.20;;;;;;;7.53;100.00;101020.97;5034433;28;20107;-58
2023/04/28 03:28:30;;;;;;;9.23;5.05;;;;;;;7.45;100.00;101028.34;5032835;28;20128;-59
2023/04/28 03:30:58;;;;;;;11.43;5.20;;;;;;;7.46;100.00;101022.22;5032803;28;20045;-59
2023/04/28 03:33:26;;;;;;;8.45;4.68;;;;;;;7.52;100.00;101021.88;5030356;28;20077;-49
2023/04/28 03:35:55;;;;;;;8.23;4.63;;;;;;;7.59;100.00;101014.59;5027950;28;20120;-51
2023/04/28 03:38:23;;;;;;;9.40;5.03;;;;;;;7.50;100.00;101015.91;5030585;28;20037;-51
2023/04/28 03:40:51;;;;;;;9.50;5.22;;;;;;;7.52;100.00;101007.97;5028264;28;20049;-49
2023/04/28 03:43:20;;;;;;;11.27;4.80;;;;;;;7.51;100.00;101012.38;5030528;28;20046;-50
2023/04/28 03:45:49;;;;;;;11.68;5.20;;;;;;;7.55;100.00;101011.28;5030678;28;20377;-50
2023/04/28 03:48:17;;;;;;;9.07;4.70;;;;;;;7.51;100.00;101012.38;5033646;28;20054;-51
2023/04/28 03:50:45;;;;;;;10.00;5.32;;;;;;;7.51;100.00;101014.97;5030291;28;20046;-48
2023/04/28 03:53:13;;;;;;;8.82;5.07;;;;;;;7.57;100.00;101017.28;5030033;28;20133;-51
2023/04/28 03:55:41;;;;;;;9.23;4.93;;;;;;;7.51;100.00;101016.72;5032843;28;20045;-51
2023/04/28 03:58:09;;;;;;;10.63;5.40;;;;;;;7.55;100.00;101013.91;5033354;28;20536;-50
2023/04/28 04:00:39;;;;;;;10.50;5.30;;;;;;;7.54;100.00;101012.22;5032980;28;20057;-51
2023/04/28 04:03:07;;;;;;;10.18;5.45;;;;;;;7.54;100.00;101006.09;5031322;28;20111;-51
2023/04/28 04:05:35;;;;;;;10.82;5.30;;;;;;;7.52;100.00;100998.34;5028896;28;20397;-49
2023/04/28 04:08:06;;;;;;;9.80;5.82;;;;;;;7.52;100.00;100994.88;5027878;28;20103;-52
2023/04/28 04:10:34;;;;;;;10.82;5.68;;;;;;;7.53;100.00;100999.19;5029514;28;20073;-52
2023/04/28 04:13:02;;;;;;;9.65;5.07;;;;;;;7.52;100.00;100998.34;5029659;28;20044;-54
2023/04/28 04:15:30;;;;;;;10.63;5.53;;;;;;;7.45;100.00;100999.56;5031059;28;20073;-51
2023/04/28 04:18:00;;;;;;;11.27;5.40;;;;;;;7.44;100.00;100993.50;5033090;28;20128;-51
2023/04/28 04:20:28;;;;;;;10.10;5.70;;;;;;;7.49;100.00;101003.72;5028364;28;20488;-50
2023/04/28 04:23:00;;;;;;;10.90;5.40;;;;;;;7.52;100.00;100990.47;5029034;28;20037;-50
2023/04/28 04:25:28;;;;;;;9.88;5.45;;;;;;;7.44;100.00;100995.25;5028892;28;20049;-49
2023/04/28 04:27:56;;;;;;;11.68;6.07;;;;;;;7.42;100.00;100991.88;5029471;28;20521;-49
2023/04/28 04:30:24;;;;;;;12.20;5.88;;;;;;;7.47;100.00;100989.03;5028942;28;20072;-51
2023/04/28 04:32:52;;;;;;;10.23;5.03;;;;;;;7.50;100.00;100987.09;5030605;28;20120;-50
2023/04/28 04:35:22;;;;;;;10.98;5.68;;;;;;;7.48;100.00;100981.09;5028122;28;20484;-53
2023/04/28 04:37:50;;;;;;;11.23;5.45;;;;;;;7.55;100.00;100979.00;5029378;28;20049;-52
2023/04/28 04:40:18;;;;;;;9.30;5.65;;;;;;;7.53;100.00;100975.66;5032596;28;20037;-53
2023/04/28 04:42:49;;;;;;;13.02;5.95;;;;;;;7.48;100.00;100970.63;5032487;28;20037;-51
2023/04/28 04:45:17;;;;;;;15.05;6.15;;;;;;;7.48;100.00;100961.94;5029278;28;20053;-52
2023/04/28 04:47:45;;;;;;;9.77;5.57;;;;;;;7.56;100.00;100959.78;5028606;28;21017;-52
2023/04/28 04:50:13;;;;;;;9.98;5.80;;;;;;;7.49;100.00;100959.25;5027253;28;20488;-54
2023/04/28 04:52:43;;;;;;;11.02;6.10;;;;;;;7.50;100.00;100960.06;5029822;28;20045;-52
2023/04/28 04:55:11;;;;;;;10.85;5.80;;;;;;;7.50;100.00;100962.69;5029709;28;20485;-51
2023/04/28 04:57:39;;;;;;;12.02;6.70;;;;;;;7.47;100.00;100962.84;5028792;28;20124;-52
2023/04/28 05:00:08;;;;;;;10.68;5.85;;;;;;;7.52;100.00;100960.84;5028075;28;20111;-52
2023/04/28 05:02:36;;;;;;;12.13;6.05;;;;;;;7.53;100.00;100959.94;5028248;28;20428;-51
2023/04/28 05:05:05;;;;;;;11.32;6.57;;;;;;;7.53;100.00;100950.31;5027520;28;20068;-53
2023/04/28 05:07:49;;;;;;;10.77;6.30;;;;;;;7.49;100.00;100956.63;5027784;28;20107;-53
2023/04/28 05:10:19;;;;;;;10.60;6.63;;;;;;;7.55;100.00;100955.47;5031204;28;20489;-52
2023/04/28 05:12:48;;;;;;;11.23;6.32;;;;;;;7.59;100.00;100952.63;5028850;28;20567;-53
2023/04/28 05:15:16;;;;;;;10.13;5.93;;;;;;;7.57;100.00;100946.59;5027948;28;20137;-52
2023/04/28 05:17:47;;;;;;;11.35;7.03;;;;;;;7.63;100.00;100947.22;5027775;28;20107;-54
2023/04/28 05:20:15;;;;;;;13.68;6.80;;;;;;;7.66;100.00;100933.97;5027252;28;20053;-49
2023/04/28 05:22:43;;;;;;;10.90;6.70;;;;;;;7.74;100.00;100930.06;5028123;28;20100;-52
2023/04/28 05:25:12;;;;;;;11.25;7.38;;;;;;;7.76;100.00;100922.94;5028377;28;20049;-51
2023/04/28 05:27:41;;;;;;;13.10;7.78;;;;;;;7.75;100.00;100923.03;5030623;28;20049;-51
2023/04/28 05:30:10;;;;;;;14.18;8.02;;;;;;;7.74;100.00;100918.72;5028998;28;20049;-52
2023/04/28 05:32:38;;;;;;;14.30;7.95;;;;;;;7.75;100.00;100928.28;5028074;28;20054;-50
2023/04/28 05:35:07;;;;;;;13.93;7.57;;;;;;;7.78;100.00;100920.25;5026685;28;20552;-52
2023/04/28 05:37:36;;;;;;;15.43;8.02;;;;;;;7.85;100.00;100916.38;5028035;28;20449;-51
2023/04/28 05:40:06;;;;;;;16.92;8.52;;;;;;;7.87;100.00;100919.78;5028509;28;20053;-52
2023/04/28 05:42:36;;;;;;;17.00;8.70;;;;;;;7.97;100.00;100927.97;5028485;28;20046;-53
2023/04/28 05:45:04;;;;;;;15.65;9.38;;;;;;;8.00;100.00;100926.97;5031960;28;20492;-51
2023/04/28 05:47:33;;;;;;;15.45;10.05;;;;;;;8.02;100.00;100925.97;5027517;28;20054;-51
2023/04/28 05:50:01;;;;;;;15.48;9.68;;;;;;;8.06;100.00;100922.25;5027045;28;20156;-53
2023/04/28 05:52:30;;;;;;;17.13;10.35;;;;;;;8.10;100.00;100928.19;5031855;28;20103;-49
2023/04/28 05:54:58;;;;;;;17.10;10.15;;;;;;;8.17;100.00;100919.06;5032632;28;20067;-50
2023/04/28 05:57:26;;;;;;;15.85;10.93;;;;;;;8.21;100.00;100928.44;5030621;28;20045;-49
2023/04/28 05:59:57;;;;;;;19.35;11.43;;;;;;;8.21;100.00;100928.44;5031570;28;20432;-52
2023/04/28 06:02:25;;;;;;;18.75;11.10;;;;;;;8.27;100.00;100927.28;5028219;28;20045;-51
2023/04/28 06:04:57;;;;;;;18.43;10.47;;;;;;;8.38;100.00;100917.03;5042437;28;20053;-50
2023/04/28 06:07:26;;;;;;;18.20;11.52;;;;;;;8.41;100.00;100900.31;5030327;28;20412;-48
2023/04/28 06:09:54;;;;;;;20.58;11.77;;;;;;;8.45;100.00;100912.34;5027947;28;20037;-51
2023/04/28 06:12:22;;;;;;;18.90;12.10;;;;;;;8.48;100.00;100924.44;5028391;28;20501;-52
2023/04/28 06:14:52;;;;;;;18.73;11.50;;;;;;;8.46;100.00;100940.25;5027484;28;20393;-50
2023/04/28 06:17:21;;;;;;;19.08;11.93;;;;;;;8.45;100.00;100938.56;5026737;28;20136;-49
2023/04/28 06:19:53;;;;;;;22.50;12.52;;;;;;;8.49;100.00;100953.19;5026448;28;20049;-52
2023/04/28 06:22:21;;;;;;;19.20;12.43;;;;;;;8.51;100.00;100946.09;5027570;28;20080;-49
2023/04/28 06:24:49;;;;;;;22.13;13.38;;;;;;;8.56;100.00;100949.31;5027602;28;20057;-49
2023/04/28 06:27:17;;;;;;;22.17;14.05;;;;;;;8.57;100.00;100940.50;5031455;28;20397;-52
2023/04/28 06:29:45;;;;;;;19.63;13.50;;;;;;;8.59;100.00;100925.53;5029964;28;20493;-50
2023/04/28 06:32:13;;;;;;;21.45;13.20;;;;;;;8.65;100.00;100915.66;5031525;28;20042;-53
2023/04/28 06:34:43;;;;;;;21.70;13.27;;;;;;;8.65;100.00;100907.78;5030403;28;20443;-50
2023/04/28 06:37:11;;;;;;;22.85;14.32;;;;;;;8.70;100.00;100909.22;5032145;28;20152;-52
2023/04/28 06:39:39;;;;;;;23.85;14.35;;;;;;;8.74;100.00;100907.25;5034748;28;20061;-52
2023/04/28 06:42:07;;;;;;;23.00;15.30;;;;;;;8.83;100.00;100911.97;5034782;28;20481;-54
2023/04/28 06:44:35;;;;;;;21.48;14.05;;;;;;;8.84;100.00;100915.47;5034324;28;20536;-53
2023/04/28 06:47:03;;;;;;;23.75;14.55;;;;;;;8.86;100.00;100913.59;5029623;28;20103;-50
2023/04/28 06:49:32;;;;;;;25.02;15.10;;;;;;;8.94;100.00;100903.50;5029796;28;20044;-51
2023/04/28 06:52:04;;;;;;;23.55;15.68;;;;;;;9.01;100.00;100906.63;5032587;28;20140;-51
2023/04/28 06:54:32;;;;;;;20.52;15.43;;;;;;;9.07;100.00;100908.91;5033077;28;20049;-58
2023/04/28 06:57:01;;;;;;;25.10;15.10;;;;;;;9.05;100.00;100909.00;5034296;28;20045;-58
2023/04/28 06:59:29;;;;;;;23.55;15.45;;;;;;;9.14;100.00;100903.19;5031063;28;20045;-52
2023/04/28 07:01:57;;;;;;;23.27;15.50;;;;;;;9.23;100.00;100900.97;5030539;28;20061;-49
2023/04/28 07:04:26;;;;;;;26.05;16.65;;;;;;;9.34;100.00;100898.56;5028750;28;20157;-52
2023/04/28 07:06:56;;;;;;;23.98;16.70;;;;;;;9.45;100.00;100895.31;5030608;28;20497;-54
2023/04/28 07:09:26;;;;;;;25.95;17.52;;;;;;;9.53;100.00;100898.31;5033553;28;20417;-49
2023/04/28 07:11:57;;;;;;;23.70;16.58;;;;;;;9.76;100.00;100888.19;5030916;28;20041;-52
2023/04/28 07:14:25;;;;;;;28.23;16.98;;;;;;;9.76;100.00;100891.69;5030747;28;20041;-50
2023/04/28 07:16:53;;;;;;;23.05;15.52;;;;;;;9.89;100.00;100897.03;5029761;28;20052;-53
2023/04/28 07:19:21;;;;;;;24.63;16.98;;;;;;;10.00;100.00;100906.03;5029617;28;20394;-53
2023/04/28 07:21:52;;;;;;;26.77;16.35;;;;;;;10.12;100.00;100900.03;5028076;28;20053;-56
2023/04/28 07:24:22;;;;;;;23.63;16.00;;;;;;;10.14;100.00;100893.72;5029968;28;20057;-53
2023/04/28 07:26:52;;;;;;;24.73;15.70;;;;;;;10.25;100.00;100900.94;5030946;28;20053;-53
2023/04/28 07:29:20;;;;;;;23.65;16.58;;;;;;;10.33;100.00;100900.44;5031895;28;20452;-53
2023/04/28 07:31:48;;;;;;;25.13;15.50;;;;;;;10.38;100.00;100905.47;5029635;28;20133;-53
2023/04/28 07:34:16;;;;;;;22.50;15.43;;;;;;;10.43;100.00;100892.84;5029463;28;20060;-54
2023/04/28 07:36:45;;;;;;;20.58;14.20;;;;;;;10.47;100.00;100892.56;5028987;28;20120;-53
2023/04/28 07:39:14;;;;;;;23.40;14.57;;;;;;;10.43;100.00;100895.47;5028604;28;20073;-54
2023/04/28 07:41:42;;;;;;;21.48;13.82;;;;;;;10.44;100.00;100894.53;5030718;28;20038;-59
2023/04/28 07:44:12;;;;;;;24.30;14.65;;;;;;;10.54;100.00;100887.75;5033484;28;20107;-59
2023/04/28 07:46:40;;;;;;;20.58;14.20;;;;;;;10.54;100.00;100893.03;5033831;28;20384;-59
2023/04/28 07:49:11;;;;;;;20.10;15.02;;;;;;;10.63;100.00;100897.69;5031113;28;20049;-59
2023/04/28 07:51:39;;;;;;;24.33;14.82;;;;;;;10.63;100.00;100894.19;5031738;28;20069;-59
2023/04/28 07:54:07;;;;;;;22.58;14.50;;;;;;;10.68;100.00;100899.19;5032733;28;20120;-59
2023/04/28 07:56:35;;;;;;;20.38;14.43;;;;;;;10.73;100.00;100887.41;5031686;28;20112;-59
2023/04/28 07:59:03;;;;;;;22.55;14.30;;;;;;;10.77;100.00;100894.16;5033151;28;20080;-59
2023/04/28 08:01:33;;;;;;;23.27;13.98;;;;;;;10.81;100.00;100893.03;5033266;28;20104;-59
2023/04/28 08:04:01;;;;;;;21.85;14.18;;;;;;;10.80;100.00;100886.06;5033345;28;20509;-59
2023/04/28 08:06:30;;;;;;;20.65;14.07;;;;;;;10.80;100.00;100883.44;5032019;28;20508;-60
2023/04/28 08:08:58;;;;;;;22.80;15.13;;;;;;;10.81;100.00;100874.59;5031402;28;20041;-60
2023/04/28 08:11:26;;;;;;;22.13;15.52;;;;;;;10.81;100.00;100879.88;5032856;28;20386;-59
2023/04/28 08:13:59;;;;;;;21.60;15.00;;;;;;;10.91;100.00;100879.25;5033415;28;20049;-59
2023/04/28 08:16:28;;;;;;;22.90;14.50;;;;;;;11.01;100.00;100877.69;5030991;28;20060;-60
2023/04/28 08:18:58;;;;;;;19.17;14.10;;;;;;;11.00;100.00;100870.72;5031442;28;20053;-60
2023/04/28 08:21:26;;;;;;;21.83;14.40;;;;;;;11.05;100.00;100875.72;5030868;28;20423;-61
2023/04/28 08:23:54;;;;;;;24.40;14.93;;;;;;;11.01;100.00;100866.34;5029158;28;20072;-60
2023/04/28 08:26:25;;;;;;;20.95;15.18;;;;;;;11.09;100.00;100874.56;5030723;28;20515;-54
2023/04/28 08:28:53;;;;;;;21.63;15.65;;;;;;;11.13;100.00;100871.59;5029209;28;20504;-53
2023/04/28 08:31:22;;;;;;;23.52;15.43;;;;;;;11.24;100.00;100881.41;5029079;28;20060;-55
2023/04/28 08:33:50;;;;;;;21.45;15.40;;;;;;;11.31;100.00;100874.78;5029186;28;20559;-59
2023/04/28 08:36:20;;;;;;;25.23;15.90;;;;;;;11.42;100.00;100866.16;5030038;28;20049;-59
2023/04/28 08:38:48;;;;;;;21.98;15.90;;;;;;;11.47;100.00;100884.28;5030511;28;20045;-59
2023/04/28 08:41:18;;;;;;;24.70;15.63;;;;;;;11.49;100.00;100872.72;5032822;28;20069;-52
2023/04/28 08:43:46;;;;;;;26.17;15.27;;;;;;;11.57;100.00;100879.22;5030900;28;20508;-53
2023/04/28 08:46:14;;;;;;;25.13;14.80;;;;;;;11.66;100.00;100871.53;5028434;28;20145;-53
2023/04/28 08:48:45;;;;;;;21.60;15.57;;;;;;;11.76;100.00;100865.63;5028218;28;20052;-53
2023/04/28 08:51:16;;;;;;;21.60;15.20;;;;;;;11.74;100.00;100871.00;5031241;28;20047;-53
2023/04/28 08:53:50;;;;;;;19.42;15.20;;;;;;;11.79;100.00;100868.03;5028648;28;20370;-53
2023/04/28 08:56:24;;;;;;;23.00;14.70;;;;;;;11.82;100.00;100867.81;5029249;28;20049;-59
2023/04/28 08:58:54;;;;;;;22.83;16.20;;;;;;;11.88;100.00;100872.69;5030712;28;20041;-59
2023/04/28 09:01:23;;;;;;;21.38;14.05;;;;;;;11.87;100.00;100878.88;5030511;28;20523;-59
2023/04/28 09:03:53;;;;;;;25.30;15.45;;;;;;;11.80;100.00;100881.09;5030512;28;20122;-59
2023/04/28 09:06:25;;;;;;;22.77;14.43;;;;;;;11.92;100.00;100878.59;5032496;28;20056;-60
2023/04/28 09:08:54;;;;;;;20.27;14.55;;;;;;;11.96;100.00;100880.09;5029691;28;20049;-59
2023/04/28 09:11:23;;;;;;;20.33;14.90;;;;;;;12.06;100.00;100878.47;5028909;28;20132;-60
2023/04/28 09:13:52;;;;;;;19.20;13.73;;;;;;;12.13;100.00;100876.25;5030530;28;20384;-60
2023/04/28 09:16:20;;;;;;;19.58;14.57;;;;;;;12.14;100.00;100872.66;5032060;28;20099;-60
2023/04/28 09:18:56;;;;;;;22.88;14.77;;;;;;;12.02;100.00;100874.38;5029713;28;20103;-60
2023/04/28 09:21:25;;;;;;;18.38;13.88;;;;;;;12.17;100.00;100875.06;5029988;28;20053;-60
2023/04/28 09:23:55;;;;;;;20.73;13.77;;;;;;;12.20;100.00;100863.47;5030447;28;20061;-60
2023/04/28 09:26:25;;;;;;;21.77;14.90;;;;;;;12.19;100.00;100865.28;5031224;28;20046;-60
2023/04/28 09:29:11;;;;;;;19.25;13.68;;;;;;;12.30;100.00;100861.88;5030309;28;20049;-60
2023/04/28 09:31:41;;;;;;;20.77;13.68;;;;;;;12.37;100.00;100851.72;5030147;28;20049;-60
2023/04/28 09:34:11;;;;;;;17.52;13.05;;;;;;;12.37;100.00;100851.72;5029871;28;20049;-60
2023/04/28 09:36:44;;;;;;;22.00;13.88;;;;;;;12.41;100.00;100856.66;5029951;28;20050;-60
2023/04/28 09:39:14;;;;;;;19.05;13.43;;;;;;;12.38;100.00;100856.00;5029235;28;20081;-60
2023/04/28 09:41:44;;;;;;;19.15;14.15;;;;;;;12.48;100.00;100849.13;5032269;28;20404;-60
2023/04/28 09:44:14;;;;;;;20.23;14.70;;;;;;;12.43;100.00;100846.81;5030898;28;20083;-61
2023/04/28 09:46:43;;;;;;;19.90;13.85;;;;;;;12.59;100.00;100848.34;5032092;28;20484;-55
2023/04/28 09:49:12;;;;;;;17.92;13.60;;;;;;;12.50;100.00;100847.22;5031872;28;20052;-55
2023/04/28 09:51:40;;;;;;;21.52;14.57;;;;;;;12.59;100.00;100843.91;5031750;28;20072;-55
2023/04/28 09:54:08;;;;;;;17.73;13.13;;;;;;;12.71;100.00;100841.31;5030525;28;20365;-60
2023/04/28 09:56:41;;;;;;;17.27;13.57;;;;;;;12.65;100.00;100845.25;5029892;28;20041;-60
2023/04/28 09:59:09;;;;;;;24.27;14.57;;;;;;;12.72;100.00;100845.63;5030866;28;20055;-60
2023/04/28 10:01:40;;;;;;;18.88;13.43;;;;;;;12.73;100.00;100844.69;5032646;28;20103;-60
2023/04/28 10:04:10;;;;;;;19.42;13.75;;;;;;;12.63;100.00;100841.88;5032999;28;20045;-61
2023/04/28 10:06:41;;;;;;;;;;;;;;;12.76;100.00;100847.09;5033539;28;20053;-54
2023/04/28 10:09:11;;;;;;;17.77;13.23;;;;;;;12.81;100.00;100839.66;5032006;28;19971;-55
2023/04/28 10:11:43;;;;;;;17.92;13.48;;;;;;;12.76;100.00;100841.81;5032014;28;20120;-55
2023/04/28 10:14:12;;;;;;;17.60;13.60;;;;;;;12.74;100.00;100836.66;5032014;28;20041;-54
2023/04/28 10:16:40;;;;;;;19.38;13.80;;;;;;;12.77;100.00;100846.13;5031206;28;20546;-56
2023/04/28 10:19:09;;;;;;;19.40;13.82;;;;;;;12.87;100.00;100833.09;5031185;28;20088;-53
2023/04/28 10:21:47;;;;;;;17.90;13.68;;;;;;;12.87;100.00;100833.94;5031229;28;20111;-54
2023/04/28 10:24:22;;;;;;;22.05;15.23;;;;;;;12.77;100.00;100838.22;5032045;28;20388;-55
2023/04/28 10:27:10;;;;;;;23.33;15.23;;;;;;;12.85;100.00;100827.94;5031431;28;20060;-53
2023/04/28 10:29:38;;;;;;;19.40;13.75;;;;;;;12.91;100.00;100830.13;5031426;28;20056;-52
2023/04/28 10:32:20;;;;;;;21.25;15.25;;;;;;;12.98;100.00;100839.25;5031252;28;20530;-54
2023/04/28 10:34:48;;;;;;;18.35;14.82;;;;;;;12.97;100.00;100834.09;5030207;28;20045;-55
2023/04/28 10:37:17;;;;;;;20.10;15.50;;;;;;;13.06;100.00;100832.53;5030939;28;20057;-55
2023/04/28 10:40:34;;;;;;;20.05;16.45;;;;;;;13.10;100.00;100834.00;5031197;28;20553;-55
2023/04/28 10:43:05;;;;;;;24.23;17.30;;;;;;;13.05;100.00;100830.84;4975043;28;20161;-54
2023/04/28 10:46:02;;;;;;;21.73;19.15;;;;;;;12.87;100.00;100835.72;5027660;28;20092;-54
2023/04/28 10:48:54;;;;;;;22.60;17.67;;;;;;;13.07;100.00;100826.31;5032026;28;20049;-54
2023/04/28 10:51:29;;;;;;;19.85;17.23;;;;;;;13.06;100.00;100832.53;5032725;28;20412;-53
2023/04/28 10:54:20;;;;;;;21.98;18.42;;;;;;;13.11;100.00;100823.31;5031357;28;20057;-55
2023/04/28 10:57:20;;;;;;;22.00;18.42;;;;;;;13.16;100.00;100830.91;5029640;28;20576;-55
2023/04/28 11:00:12;;;;;;;22.65;17.90;;;;;;;13.19;100.00;100835.94;5032472;28;20045;-54
2023/04/28 11:02:41;;;;;;;25.10;19.38;;;;;;;13.09;100.00;100832.31;5030984;28;20374;-55
2023/04/28 11:05:17;;;;;;;24.90;19.75;;;;;;;13.09;100.00;100822.59;5029776;28;20566;-55
2023/04/28 11:08:29;;;;;;;23.17;19.67;;;;;;;13.07;100.00;100818.41;5030318;28;20132;-54
2023/04/28 11:11:16;;;;;;;27.15;20.42;;;;;;;13.07;100.00;100821.88;5031016;28;20041;-53
2023/04/28 11:13:46;;;;;;;32.67;20.20;;;;;;;13.24;100.00;100820.59;5029360;28;20053;-53
2023/04/28 11:16:18;;;;;;;21.90;17.48;;;;;;;13.21;100.00;100826.13;5030717;28;20548;-53
2023/04/28 11:19:04;;;;;;;217.93;34.40;;;;;;;13.23;100.00;100813.63;5030672;28;20415;-51
2023/04/28 11:21:33;;;;;;;32.58;16.60;;;;;;;13.30;100.00;100827.19;5029386;28;20388;-53
2023/04/28 11:24:08;;;;;;;16.98;14.25;;;;;;;13.34;100.00;100821.53;5030649;28;20046;-51
2023/04/28 11:26:38;;;;;;;17.38;14.07;;;;;;;13.35;100.00;100823.28;5031017;28;20107;-52